Time;durP1;ratioP1;P1;durP2;ratioP2;P2;SDS_P1;SDS_P2;PMS_P1;PMS_P2;Temp;Humidity;BMP_temperature;BMP_pressure;BME280_temperature;BME280_humidity;BME280_pressure;Samples;Min_cycle;Max_cycle;Signal;HPM_P1;HPM_P2
2022/11/13 00:00:55;;;;;;;;;76.75;59.50;;;;;-147.17;100.00;-15917.19;4973997;28;51099;-47
2022/11/13 00:03:20;;;;;;;;;69.50;55.75;;;;;-147.17;100.00;-15917.19;4991775;28;51037;-47
2022/11/13 00:05:46;;;;;;;;;71.75;56.75;;;;;-147.17;100.00;-15917.19;4988910;28;51424;-47
2022/11/13 00:08:11;;;;;;;;;75.25;61.50;;;;;-147.17;100.00;-15917.19;4987069;28;51390;-48
2022/11/13 00:10:37;;;;;;;;;74.50;59.25;;;;;-147.17;100.00;-15917.19;4991273;28;51061;-48
2022/11/13 00:13:02;;;;;;;;;66.50;54.00;;;;;-147.17;100.00;-15917.19;4991696;28;51029;-47
2022/11/13 00:15:27;;;;;;;;;70.25;57.00;;;;;-147.17;100.00;-15917.19;4991784;28;51283;-48
2022/11/13 00:17:53;;;;;;;;;70.75;57.25;;;;;-147.17;100.00;-15917.19;4991468;28;51891;-48
2022/11/13 00:20:18;;;;;;;;;70.25;57.00;;;;;-147.17;100.00;-15917.19;4991274;28;51078;-47
2022/11/13 00:22:44;;;;;;;;;69.50;56.50;;;;;-147.17;100.00;-15917.19;4991692;28;50883;-48
2022/11/13 00:25:10;;;;;;;;;70.50;57.50;;;;;-147.17;100.00;-15917.19;4989540;28;51160;-47
2022/11/13 00:27:35;;;;;;;;;70.00;55.50;;;;;-147.17;100.00;-15917.19;4991174;28;52003;-48
2022/11/13 00:30:01;;;;;;;;;75.50;59.75;;;;;-147.17;100.00;-15917.19;4991325;28;51001;-47
2022/11/13 00:32:26;;;;;;;;;56.00;46.75;;;;;-147.17;100.00;-15917.19;4991195;28;51014;-48
2022/11/13 00:34:52;;;;;;;;;62.50;51.75;;;;;-147.17;100.00;-15917.19;4991870;28;52147;-47
2022/11/13 00:37:17;;;;;;;;;70.50;56.00;;;;;-147.17;100.00;-15917.19;4979481;28;51131;-47
2022/11/13 00:39:43;;;;;;;;;59.75;47.50;;;;;-147.17;100.00;-15917.19;4988005;28;51207;-47
2022/11/13 00:42:08;;;;;;;;;61.75;49.00;;;;;-147.17;100.00;-15917.19;4991942;28;52669;-49
2022/11/13 00:44:33;;;;;;;;;64.00;52.00;;;;;-147.17;100.00;-15917.19;4990573;28;51010;-47
2022/11/13 00:46:59;;;;;;;;;62.25;48.25;;;;;-147.17;100.00;-15917.19;4986959;28;51761;-47
2022/11/13 00:49:24;;;;;;;;;62.50;52.00;;;;;-147.17;100.00;-15917.19;4990993;28;50862;-47
2022/11/13 00:51:49;;;;;;;;;68.75;55.25;;;;;-147.17;100.00;-15917.19;4971684;28;50936;-48
2022/11/13 00:54:15;;;;;;;;;68.25;56.00;;;;;-147.17;100.00;-15917.19;4951346;28;1150387;-50
2022/11/13 00:56:40;;;;;;;;;66.75;53.75;;;;;-147.17;100.00;-15917.19;4992479;28;59595;-49
2022/11/13 00:59:06;;;;;;;;;63.25;51.50;;;;;-147.17;100.00;-15917.19;4992210;28;50868;-47
2022/11/13 01:01:31;;;;;;;;;69.75;55.25;;;;;-147.17;100.00;-15917.19;4972854;28;51113;-49
2022/11/13 01:03:56;;;;;;;;;63.75;52.00;;;;;-147.17;100.00;-15917.19;4992541;28;51082;-47
2022/11/13 01:06:25;;;;;;;;;64.00;52.00;;;;;-147.17;100.00;-15917.19;4991600;28;51621;-49
2022/11/13 01:08:54;;;;;;;;;65.75;52.75;;;;;-147.17;100.00;-15917.19;4991990;28;51100;-48
2022/11/13 01:11:23;;;;;;;;;59.25;50.25;;;;;-147.17;100.00;-15917.19;4991653;28;51111;-47
2022/11/13 01:13:49;;;;;;;;;60.75;48.25;;;;;-147.17;100.00;-15917.19;4992576;28;51222;-48
2022/11/13 01:16:17;;;;;;;;;56.75;48.00;;;;;-147.17;100.00;-15917.19;4991975;28;51823;-48
2022/11/13 01:18:42;;;;;;;;;60.00;48.00;;;;;-147.17;100.00;-15917.19;4970705;28;51074;-48
2022/11/13 01:21:15;;;;;;;;;61.00;51.00;;;;;-147.17;100.00;-15917.19;4991143;28;51166;-48
2022/11/13 01:23:41;;;;;;;;;63.50;50.00;;;;;-147.17;100.00;-15917.19;4992683;28;51026;-48
2022/11/13 01:26:18;;;;;;;;;58.25;49.00;;;;;-147.17;100.00;-15917.19;4991957;28;51107;-47
2022/11/13 01:28:45;;;;;;;;;55.00;45.25;;;;;-147.17;100.00;-15917.19;4991408;28;50973;-48
2022/11/13 01:31:16;;;;;;;;;57.50;47.00;;;;;-147.17;100.00;-15917.19;4992080;28;51101;-47
2022/11/13 01:33:44;;;;;;;;;56.00;46.50;;;;;-147.17;100.00;-15917.19;4991912;28;51113;-48
2022/11/13 01:36:13;;;;;;;;;60.25;49.75;;;;;-147.17;100.00;-15917.19;4991794;28;52166;-47
2022/11/13 01:38:38;;;;;;;;;60.50;49.75;;;;;-147.17;100.00;-15917.19;4992264;28;51165;-48
2022/11/13 01:41:05;;;;;;;;;64.00;51.50;;;;;-147.17;100.00;-15917.19;4992253;28;51296;-46
2022/11/13 01:43:34;;;;;;;;;56.75;46.50;;;;;-147.17;100.00;-15917.19;4991681;28;51155;-50
2022/11/13 01:45:59;;;;;;;;;59.75;49.25;;;;;-147.17;100.00;-15917.19;4991844;28;51900;-47
2022/11/13 01:48:32;;;;;;;;;62.00;50.00;;;;;-147.17;100.00;-15917.19;4991707;28;51013;-47
2022/11/13 01:50:58;;;;;;;;;64.50;51.25;;;;;-147.17;100.00;-15917.19;4975079;28;51014;-46
2022/11/13 01:53:25;;;;;;;;;58.25;48.00;;;;;-147.17;100.00;-15917.19;4990580;28;51418;-48
2022/11/13 01:55:50;;;;;;;;;58.25;48.50;;;;;-147.17;100.00;-15917.19;4997202;28;51851;-47
2022/11/13 01:58:16;;;;;;;;;63.00;51.75;;;;;-147.17;100.00;-15917.19;4991858;28;51183;-47
2022/11/13 02:00:41;;;;;;;;;63.50;52.00;;;;;-147.17;100.00;-15917.19;4991217;28;51073;-48
2022/11/13 02:03:07;;;;;;;;;63.75;51.50;;;;;-147.17;100.00;-15917.19;4993453;28;50858;-47
2022/11/13 02:05:32;;;;;;;;;60.50;51.00;;;;;-147.17;100.00;-15917.19;4993686;28;51718;-47
2022/11/13 02:07:58;;;;;;;;;62.00;49.25;;;;;-147.17;100.00;-15917.19;4995189;28;50981;-48
2022/11/13 02:10:24;;;;;;;;;57.75;48.25;;;;;-147.17;100.00;-15917.19;4995168;28;51041;-48
2022/11/13 02:12:50;;;;;;;;;59.00;49.25;;;;;-147.17;100.00;-15917.19;4967642;28;51411;-47
2022/11/13 02:15:19;;;;;;;;;55.25;46.75;;;;;-147.17;100.00;-15917.19;4991381;28;52113;-48
2022/11/13 02:17:51;;;;;;;;;54.00;45.25;;;;;-147.17;100.00;-15917.19;4994715;28;50867;-47
2022/11/13 02:20:25;;;;;;;;;55.25;46.25;;;;;-147.17;100.00;-15917.19;4994477;28;50976;-46
2022/11/13 02:22:55;;;;;;;;;51.25;42.50;;;;;-147.17;100.00;-15917.19;4994572;28;51156;-46
2022/11/13 02:25:21;;;;;;;;;49.00;40.50;;;;;-147.17;100.00;-15917.19;4993576;28;52997;-48
2022/11/13 02:27:48;;;;;;;;;52.50;44.25;;;;;-147.17;100.00;-15917.19;4993653;28;50889;-47
2022/11/13 02:30:29;;;;;;;;;53.75;45.25;;;;;-147.17;100.00;-15917.19;4994375;28;50971;-48
2022/11/13 02:32:56;;;;;;;;;53.75;45.00;;;;;-147.17;100.00;-15917.19;4993905;28;51212;-48
2022/11/13 02:35:33;;;;;;;;;55.25;46.50;;;;;-147.17;100.00;-15917.19;4994598;28;52685;-47
2022/11/13 02:38:02;;;;;;;;;56.25;47.50;;;;;-147.17;100.00;-15917.19;4993452;28;51116;-47
2022/11/13 02:40:29;;;;;;;;;55.00;44.00;;;;;-147.17;100.00;-15917.19;4993139;28;51096;-47
2022/11/13 02:42:54;;;;;;;;;52.75;43.75;;;;;-147.17;100.00;-15917.19;4961334;28;51381;-49
2022/11/13 02:45:20;;;;;;;;;47.00;40.00;;;;;-147.17;100.00;-15917.19;4976652;28;51731;-47
2022/11/13 02:47:45;;;;;;;;;52.00;44.00;;;;;-147.17;100.00;-15917.19;4993275;28;51093;-48
2022/11/13 02:50:12;;;;;;;;;44.75;39.75;;;;;-147.17;100.00;-15917.19;4976226;28;51576;-48
2022/11/13 02:52:37;;;;;;;;;50.50;42.50;;;;;-147.17;100.00;-15917.19;4994314;28;51164;-48
2022/11/13 02:55:03;;;;;;;;;52.50;44.00;;;;;-147.17;100.00;-15917.19;4993749;28;59125;-49
2022/11/13 02:57:28;;;;;;;;;51.50;43.75;;;;;-147.17;100.00;-15917.19;4972547;28;50956;-46
2022/11/13 02:59:54;;;;;;;;;48.50;41.50;;;;;-147.17;100.00;-15917.19;4992022;28;50851;-47
2022/11/13 03:02:19;;;;;;;;;52.50;42.25;;;;;-147.17;100.00;-15917.19;4985944;28;51141;-46
2022/11/13 03:04:45;;;;;;;;;51.25;43.00;;;;;-147.17;100.00;-15917.19;4993331;28;55079;-47
2022/11/13 03:07:12;;;;;;;;;47.75;40.00;;;;;-147.17;100.00;-15917.19;4993628;28;51148;-48
2022/11/13 03:09:37;;;;;;;;;52.00;40.50;;;;;-147.17;100.00;-15917.19;4994570;28;51182;-47
2022/11/13 03:12:03;;;;;;;;;44.00;38.25;;;;;-147.17;100.00;-15917.19;4994785;28;51049;-48
2022/11/13 03:14:28;;;;;;;;;49.00;40.50;;;;;-147.17;100.00;-15917.19;4990144;28;51749;-47
2022/11/13 03:16:53;;;;;;;;;40.25;37.50;;;;;-147.17;100.00;-15917.19;4993731;28;51057;-49
2022/11/13 03:19:19;;;;;;;;;51.25;42.50;;;;;-147.17;100.00;-15917.19;4994261;28;51031;-47
2022/11/13 03:21:44;;;;;;;;;45.75;40.50;;;;;-147.17;100.00;-15917.19;4993929;28;51124;-48
2022/11/13 03:24:09;;;;;;;;;46.25;40.25;;;;;-147.17;100.00;-15917.19;4994100;28;50904;-48
2022/11/13 03:26:35;;;;;;;;;49.75;40.50;;;;;-147.17;100.00;-15917.19;4983940;28;50914;-48
2022/11/13 03:29:00;;;;;;;;;47.25;40.00;;;;;-147.17;100.00;-15917.19;4991892;28;51109;-50
2022/11/13 03:31:25;;;;;;;;;45.50;39.25;;;;;-147.17;100.00;-15917.19;4993764;28;51154;-47
2022/11/13 03:33:52;;;;;;;;;44.50;38.00;;;;;-147.17;100.00;-15917.19;4993392;28;57217;-48
2022/11/13 03:36:18;;;;;;;;;43.00;38.00;;;;;-147.17;100.00;-15917.19;4993708;28;50939;-49
2022/11/13 03:38:43;;;;;;;;;45.50;40.00;;;;;-147.17;100.00;-15917.19;4992900;28;51140;-48
2022/11/13 03:41:09;;;;;;;;;45.00;38.00;;;;;-147.17;100.00;-15917.19;4993974;28;50820;-48
2022/11/13 03:43:34;;;;;;;;;43.00;38.75;;;;;-147.17;100.00;-15917.19;4985896;28;51165;-48
2022/11/13 03:45:59;;;;;;;;;46.75;40.00;;;;;-147.17;100.00;-15917.19;4993267;28;51033;-46
2022/11/13 03:48:25;;;;;;;;;41.25;35.50;;;;;-147.17;100.00;-15917.19;4993314;28;51075;-48
2022/11/13 03:50:53;;;;;;;;;44.25;39.00;;;;;-147.17;100.00;-15917.19;4994085;28;50982;-46
2022/11/13 03:53:18;;;;;;;;;40.25;35.25;;;;;-147.17;100.00;-15917.19;4993467;28;52347;-48
2022/11/13 03:55:44;;;;;;;;;52.75;43.00;;;;;-147.17;100.00;-15917.19;4998929;28;51008;-48
2022/11/13 03:58:10;;;;;;;;;46.00;40.00;;;;;-147.17;100.00;-15917.19;4993093;28;51050;-48
2022/11/13 04:00:36;;;;;;;;;50.75;43.75;;;;;-147.17;100.00;-15917.19;4993519;28;51196;-48
2022/11/13 04:03:01;;;;;;;;;48.50;39.00;;;;;-147.17;100.00;-15917.19;4993251;28;50924;-48
2022/11/13 04:05:27;;;;;;;;;44.00;37.00;;;;;-147.17;100.00;-15917.19;4975550;28;51042;-48
2022/11/13 04:07:52;;;;;;;;;48.00;40.50;;;;;-147.17;100.00;-15917.19;4992865;28;52206;-48
2022/11/13 04:10:17;;;;;;;;;50.50;40.75;;;;;-147.17;100.00;-15917.19;4992218;28;50893;-47
2022/11/13 04:12:43;;;;;;;;;47.50;40.50;;;;;-147.17;100.00;-15917.19;4983255;28;51714;-48
2022/11/13 04:15:09;;;;;;;;;45.75;40.75;;;;;-147.17;100.00;-15917.19;4993311;28;50940;-47
2022/11/13 04:17:34;;;;;;;;;43.75;38.00;;;;;-147.17;100.00;-15917.19;4975145;28;51125;-49
2022/11/13 04:19:59;;;;;;;;;43.00;37.25;;;;;-147.17;100.00;-15917.19;4993247;28;51055;-49
2022/11/13 04:22:25;;;;;;;;;45.75;38.75;;;;;-147.17;100.00;-15917.19;4993104;28;51810;-49
2022/11/13 04:24:50;;;;;;;;;47.50;41.00;;;;;-147.17;100.00;-15917.19;4993007;28;51129;-46
2022/11/13 04:27:16;;;;;;;;;42.75;38.00;;;;;-147.17;100.00;-15917.19;4991213;28;52147;-48
2022/11/13 04:29:41;;;;;;;;;43.50;37.00;;;;;-147.17;100.00;-15917.19;4993386;28;51466;-48
2022/11/13 04:32:06;;;;;;;;;45.75;39.75;;;;;-147.17;100.00;-15917.19;4992420;28;52795;-46
2022/11/13 04:34:32;;;;;;;;;46.25;40.75;;;;;-147.17;100.00;-15917.19;4993143;28;51033;-47
2022/11/13 04:36:58;;;;;;;;;47.50;39.00;;;;;-147.17;100.00;-15917.19;4993037;28;51238;-47
2022/11/13 04:39:23;;;;;;;;;43.75;38.00;;;;;-147.17;100.00;-15917.19;4993253;28;51511;-47
2022/11/13 04:44:32;;;;;;;;;47.25;38.00;;;;;-147.17;100.00;-15917.19;4988441;28;51041;-48
2022/11/13 04:46:58;;;;;;;;;44.75;38.75;;;;;-147.17;100.00;-15917.19;4992476;28;51022;-49
2022/11/13 04:49:23;;;;;;;;;42.50;37.75;;;;;-147.17;100.00;-15917.19;4992685;28;51176;-49
2022/11/13 04:51:48;;;;;;;;;37.50;36.00;;;;;-147.17;100.00;-15917.19;4992474;28;51068;-48
2022/11/13 04:54:14;;;;;;;;;31.50;31.00;;;;;-147.17;100.00;-15917.19;4995467;28;51199;-47
2022/11/13 04:56:39;;;;;;;;;34.75;32.25;;;;;-147.17;100.00;-15917.19;4996522;28;50964;-48
2022/11/13 04:59:05;;;;;;;;;37.00;35.25;;;;;-147.17;100.00;-15917.19;4992233;28;50927;-47
2022/11/13 05:01:30;;;;;;;;;32.25;31.00;;;;;-147.17;100.00;-15917.19;4991224;28;51776;-46
2022/11/13 05:03:55;;;;;;;;;34.50;32.75;;;;;-147.17;100.00;-15917.19;4992915;28;50894;-46
2022/11/13 05:06:20;;;;;;;;;37.00;35.00;;;;;-147.17;100.00;-15917.19;4992417;28;51065;-47
2022/11/13 05:08:46;;;;;;;;;34.00;33.50;;;;;-147.17;100.00;-15917.19;4992701;28;51269;-46
2022/11/13 05:11:11;;;;;;;;;36.50;29.75;;;;;-147.17;100.00;-15917.19;4992445;28;52804;-46
2022/11/13 05:13:37;;;;;;;;;31.25;30.50;;;;;-147.17;100.00;-15917.19;4991894;28;51037;-48
2022/11/13 05:16:05;;;;;;;;;32.50;30.25;;;;;-147.17;100.00;-15917.19;4992586;28;51527;-46
2022/11/13 05:18:31;;;;;;;;;31.75;30.00;;;;;-147.17;100.00;-15917.19;4991290;28;52424;-45
2022/11/13 05:20:57;;;;;;;;;36.25;34.50;;;;;-147.17;100.00;-15917.19;4992115;28;51856;-47
2022/11/13 05:23:22;;;;;;;;;32.75;31.25;;;;;-147.17;100.00;-15917.19;4992437;28;51092;-47
2022/11/13 05:25:47;;;;;;;;;33.75;30.50;;;;;-147.17;100.00;-15917.19;4991196;28;51225;-47
2022/11/13 05:28:13;;;;;;;;;35.25;32.50;;;;;-147.17;100.00;-15917.19;4991594;28;51300;-46
2022/11/13 05:30:38;;;;;;;;;32.75;31.50;;;;;-147.17;100.00;-15917.19;4992150;28;51734;-47
2022/11/13 05:33:03;;;;;;;;;31.00;29.00;;;;;-147.17;100.00;-15917.19;4992287;28;51060;-48
2022/11/13 05:35:29;;;;;;;;;35.25;32.25;;;;;-147.17;100.00;-15917.19;4991972;28;51072;-48
2022/11/13 05:37:54;;;;;;;;;35.50;31.50;;;;;-147.17;100.00;-15917.19;4994342;28;51078;-48
2022/11/13 05:40:20;;;;;;;;;31.50;28.75;;;;;-147.17;100.00;-15917.19;4988871;28;51652;-48
2022/11/13 05:42:45;;;;;;;;;34.50;31.25;;;;;-147.17;100.00;-15917.19;4990808;28;50950;-47
2022/11/13 05:45:10;;;;;;;;;26.50;26.00;;;;;-147.17;100.00;-15917.19;4995437;28;56001;-48
2022/11/13 05:47:35;;;;;;;;;33.75;31.50;;;;;-147.17;100.00;-15917.19;4995556;28;50876;-47
2022/11/13 05:50:01;;;;;;;;;33.75;31.25;;;;;-147.17;100.00;-15917.19;4995655;28;51666;-47
2022/11/13 05:52:26;;;;;;;;;33.50;31.25;;;;;-147.17;100.00;-15917.19;4991730;28;51192;-48
2022/11/13 05:54:51;;;;;;;;;28.50;26.50;;;;;-147.17;100.00;-15917.19;4999337;28;50893;-48
2022/11/13 05:57:17;;;;;;;;;29.00;27.00;;;;;-147.17;100.00;-15917.19;4994909;28;51079;-47
2022/11/13 05:59:42;;;;;;;;;34.75;33.25;;;;;-147.17;100.00;-15917.19;4995112;28;52031;-48
2022/11/13 06:02:07;;;;;;;;;31.50;30.50;;;;;-147.17;100.00;-15917.19;4995192;28;51073;-47
2022/11/13 06:04:33;;;;;;;;;35.50;32.75;;;;;-147.17;100.00;-15917.19;4977450;28;51137;-46
2022/11/13 06:06:58;;;;;;;;;29.75;29.75;;;;;-147.17;100.00;-15917.19;4966334;28;51237;-46
2022/11/13 06:09:23;;;;;;;;;33.75;31.00;;;;;-147.17;100.00;-15917.19;4992866;28;51889;-48
2022/11/13 06:11:49;;;;;;;;;32.00;29.00;;;;;-147.17;100.00;-15917.19;4994269;28;51089;-51
2022/11/13 06:14:14;;;;;;;;;32.50;29.00;;;;;-147.17;100.00;-15917.19;4995728;28;51110;-47
2022/11/13 06:16:40;;;;;;;;;30.50;30.00;;;;;-147.17;100.00;-15917.19;4989129;28;51089;-48
2022/11/13 06:19:08;;;;;;;;;31.00;28.75;;;;;-147.17;100.00;-15917.19;4994230;28;51892;-48
2022/11/13 06:21:37;;;;;;;;;34.00;33.25;;;;;-147.17;100.00;-15917.19;4995079;28;51005;-48
2022/11/13 06:24:03;;;;;;;;;31.25;27.75;;;;;-147.17;100.00;-15917.19;4995219;28;50919;-48
2022/11/13 06:26:31;;;;;;;;;34.50;33.00;;;;;-147.17;100.00;-15917.19;4976021;28;51252;-48
2022/11/13 06:28:58;;;;;;;;;32.50;30.50;;;;;-147.17;100.00;-15917.19;4993710;28;53504;-49
2022/11/13 06:31:25;;;;;;;;;33.25;32.25;;;;;-147.17;100.00;-15917.19;4994304;28;51125;-48
2022/11/13 06:33:51;;;;;;;;;28.75;27.00;;;;;-147.17;100.00;-15917.19;4994856;28;50984;-48
2022/11/13 06:36:20;;;;;;;;;38.25;34.75;;;;;-147.17;100.00;-15917.19;4994673;28;51373;-47
2022/11/13 06:38:46;;;;;;;;;32.75;29.25;;;;;-147.17;100.00;-15917.19;4994750;28;51906;-47
2022/11/13 06:41:14;;;;;;;;;29.00;27.50;;;;;-147.17;100.00;-15917.19;4991424;28;51748;-47
2022/11/13 06:43:40;;;;;;;;;34.75;32.25;;;;;-147.17;100.00;-15917.19;4994379;28;51108;-46
2022/11/13 06:46:10;;;;;;;;;32.50;32.00;;;;;-147.17;100.00;-15917.19;4994823;28;51205;-48
2022/11/13 06:48:35;;;;;;;;;26.75;25.75;;;;;-147.17;100.00;-15917.19;4993731;28;51055;-47
2022/11/13 06:51:03;;;;;;;;;27.25;25.75;;;;;-147.17;100.00;-15917.19;4994046;28;61160;-48
2022/11/13 06:53:29;;;;;;;;;26.75;23.50;;;;;-147.17;100.00;-15917.19;4994185;28;51208;-48
2022/11/13 06:55:55;;;;;;;;;26.00;24.50;;;;;-147.17;100.00;-15917.19;5001583;28;51382;-47
2022/11/13 06:58:20;;;;;;;;;24.00;22.25;;;;;-147.17;100.00;-15917.19;4993234;28;50904;-47
2022/11/13 07:00:46;;;;;;;;;25.50;23.25;;;;;-147.17;100.00;-15917.19;4993940;28;52810;-48
2022/11/13 07:03:20;;;;;;;;;22.25;21.25;;;;;-147.17;100.00;-15917.19;4993333;28;51033;-47
2022/11/13 07:05:46;;;;;;;;;24.50;22.75;;;;;-147.17;100.00;-15917.19;4981862;28;51086;-48
2022/11/13 07:08:13;;;;;;;;;23.00;23.00;;;;;-147.17;100.00;-15917.19;4993919;28;51975;-47
2022/11/13 07:10:39;;;;;;;;;18.00;16.50;;;;;-147.17;100.00;-15917.19;4992893;28;51160;-48
2022/11/13 07:13:05;;;;;;;;;24.00;22.50;;;;;-147.17;100.00;-15917.19;4993912;28;51145;-47
2022/11/13 07:15:35;;;;;;;;;26.75;24.25;;;;;-147.17;100.00;-15917.19;4991821;28;51235;-47
2022/11/13 07:18:01;;;;;;;;;20.25;18.75;;;;;-147.17;100.00;-15917.19;4987070;28;51345;-48
2022/11/13 07:20:26;;;;;;;;;19.50;18.75;;;;;-147.17;100.00;-15917.19;4994253;28;51111;-48
2022/11/13 07:22:56;;;;;;;;;22.25;21.50;;;;;-147.17;100.00;-15917.19;4994140;28;50921;-47
2022/11/13 07:25:21;;;;;;;;;21.50;20.50;;;;;-147.17;100.00;-15917.19;4994261;28;50995;-48
2022/11/13 07:27:47;;;;;;;;;22.00;19.75;;;;;-147.17;100.00;-15917.19;4992723;28;51142;-47
2022/11/13 07:30:12;;;;;;;;;22.50;22.00;;;;;-147.17;100.00;-15917.19;4993025;28;51096;-48
2022/11/13 07:32:37;;;;;;;;;26.25;23.50;;;;;-147.17;100.00;-15917.19;4971503;28;51012;-47
2022/11/13 07:35:03;;;;;;;;;26.25;25.25;;;;;-147.17;100.00;-15917.19;4986060;28;51331;-47
2022/11/13 07:37:28;;;;;;;;;20.50;20.25;;;;;-147.17;100.00;-15917.19;4993198;28;51931;-48
2022/11/13 07:39:54;;;;;;;;;21.50;21.00;;;;;-147.17;100.00;-15917.19;4993480;28;51231;-47
2022/11/13 07:42:19;;;;;;;;;21.50;20.75;;;;;-147.17;100.00;-15917.19;4993473;28;51068;-47
2022/11/13 07:44:44;;;;;;;;;22.00;21.25;;;;;-147.17;100.00;-15917.19;4993789;28;51336;-47
2022/11/13 07:47:10;;;;;;;;;22.25;21.00;;;;;-147.17;100.00;-15917.19;4991004;28;51796;-46
2022/11/13 07:49:35;;;;;;;;;24.50;20.75;;;;;-147.17;100.00;-15917.19;4993700;28;51125;-50
2022/11/13 07:52:00;;;;;;;;;22.00;22.00;;;;;-147.17;100.00;-15917.19;4992345;28;50922;-48
2022/11/13 07:54:26;;;;;;;;;23.25;22.25;;;;;-147.17;100.00;-15917.19;4999557;28;51276;-46
2022/11/13 07:56:51;;;;;;;;;21.75;21.50;;;;;-147.17;100.00;-15917.19;4981495;28;51858;-47
2022/11/13 07:59:17;;;;;;;;;24.75;23.75;;;;;-147.17;100.00;-15917.19;4993120;28;50930;-47
2022/11/13 08:01:42;;;;;;;;;21.50;20.25;;;;;-147.17;100.00;-15917.19;4991746;28;51103;-48
2022/11/13 08:04:07;;;;;;;;;30.00;24.25;;;;;-147.17;100.00;-15917.19;4992173;28;51148;-46
2022/11/13 08:06:35;;;;;;;;;22.25;21.00;;;;;-147.17;100.00;-15917.19;4992912;28;51060;-48
2022/11/13 08:09:01;;;;;;;;;23.50;22.00;;;;;-147.17;100.00;-15917.19;4993429;28;51022;-48
2022/11/13 08:11:26;;;;;;;;;25.25;22.50;;;;;-147.17;100.00;-15917.19;4993006;28;51573;-48
2022/11/13 08:13:51;;;;;;;;;21.75;19.75;;;;;-147.17;100.00;-15917.19;4993964;28;51373;-47
2022/11/13 08:16:17;;;;;;;;;28.75;28.50;;;;;-147.17;100.00;-15917.19;4991336;28;52824;-49
2022/11/13 08:18:42;;;;;;;;;18.75;18.25;;;;;-147.17;100.00;-15917.19;4992156;28;51081;-47
2022/11/13 08:21:07;;;;;;;;;26.50;24.25;;;;;-147.17;100.00;-15917.19;4992636;28;50918;-47
2022/11/13 08:23:33;;;;;;;;;22.25;20.75;;;;;-147.17;100.00;-15917.19;4993575;28;51295;-46
2022/11/13 08:26:03;;;;;;;;;21.50;19.00;;;;;-147.17;100.00;-15917.19;4992861;28;52029;-46
2022/11/13 08:28:28;;;;;;;;;18.25;17.75;;;;;-147.17;100.00;-15917.19;4992960;28;51056;-46
2022/11/13 08:30:53;;;;;;;;;25.00;20.50;;;;;-147.17;100.00;-15917.19;4992080;28;50920;-48
2022/11/13 08:33:19;;;;;;;;;20.50;18.25;;;;;-147.17;100.00;-15917.19;4992909;28;51314;-47
2022/11/13 08:35:54;;;;;;;;;23.50;19.00;;;;;-147.17;100.00;-15917.19;4992736;28;50906;-48
2022/11/13 08:38:20;;;;;;;;;21.25;20.75;;;;;-147.17;100.00;-15917.19;4992160;28;51125;-46
2022/11/13 08:40:46;;;;;;;;;20.00;18.00;;;;;-147.17;100.00;-15917.19;4988593;28;50964;-48
2022/11/13 08:43:11;;;;;;;;;24.25;23.50;;;;;-147.17;100.00;-15917.19;4992808;28;51347;-47
2022/11/13 08:45:36;;;;;;;;;20.00;19.00;;;;;-147.17;100.00;-15917.19;4991845;28;55781;-48
2022/11/13 08:48:03;;;;;;;;;23.50;22.00;;;;;-147.17;100.00;-15917.19;4991907;28;51058;-49
2022/11/13 08:50:30;;;;;;;;;16.75;16.00;;;;;-147.17;100.00;-15917.19;4968962;28;50989;-47
2022/11/13 08:52:57;;;;;;;;;26.25;24.75;;;;;-147.17;100.00;-15917.19;4985817;28;51376;-47
2022/11/13 08:55:22;;;;;;;;;19.00;19.00;;;;;-147.17;100.00;-15917.19;4994872;28;52111;-47
2022/11/13 08:57:48;;;;;;;;;21.50;21.50;;;;;-147.17;100.00;-15917.19;4992511;28;50843;-47
2022/11/13 09:00:14;;;;;;;;;25.50;23.00;;;;;-147.17;100.00;-15917.19;4991881;28;51757;-48
2022/11/13 09:02:39;;;;;;;;;23.00;21.25;;;;;-147.17;100.00;-15917.19;4992380;28;51351;-46
2022/11/13 09:05:05;;;;;;;;;25.50;23.50;;;;;-147.17;100.00;-15917.19;4989008;28;50985;-47
2022/11/13 09:07:31;;;;;;;;;29.25;26.00;;;;;-147.17;100.00;-15917.19;4990870;28;50983;-47
2022/11/13 09:09:56;;;;;;;;;18.50;17.25;;;;;-147.17;100.00;-15917.19;4974133;28;51190;-48
2022/11/13 09:12:21;;;;;;;;;28.50;27.00;;;;;-147.17;100.00;-15917.19;4993558;28;51055;-47
2022/11/13 09:14:47;;;;;;;;;25.50;25.25;;;;;-147.17;100.00;-15917.19;4994492;28;52016;-49
2022/11/13 09:17:12;;;;;;;;;27.25;23.25;;;;;-147.17;100.00;-15917.19;4995160;28;51103;-47
2022/11/13 09:19:38;;;;;;;;;24.25;23.50;;;;;-147.17;100.00;-15917.19;4995703;28;51048;-46
2022/11/13 09:22:03;;;;;;;;;26.00;24.75;;;;;-147.17;100.00;-15917.19;4996066;28;51073;-47
2022/11/13 09:24:28;;;;;;;;;23.25;23.25;;;;;-147.17;100.00;-15917.19;4977588;28;51604;-47
2022/11/13 09:26:54;;;;;;;;;26.25;25.50;;;;;-147.17;100.00;-15917.19;4995585;28;51152;-48
2022/11/13 09:29:20;;;;;;;;;25.50;24.50;;;;;-147.17;100.00;-15917.19;4986216;28;51541;-49
2022/11/13 09:31:45;;;;;;;;;25.25;23.50;;;;;-147.17;100.00;-15917.19;4994239;28;50917;-47
2022/11/13 09:34:10;;;;;;;;;27.75;26.00;;;;;-147.17;100.00;-15917.19;4995034;28;50906;-47
2022/11/13 09:36:36;;;;;;;;;25.00;25.00;;;;;-147.17;100.00;-15917.19;4977588;28;51027;-47
2022/11/13 09:39:02;;;;;;;;;32.00;30.50;;;;;-147.17;100.00;-15917.19;4995385;28;50927;-46
2022/11/13 09:41:33;;;;;;;;;34.25;28.00;;;;;-147.17;100.00;-15917.19;4995475;28;51200;-48
2022/11/13 09:44:02;;;;;;;;;29.75;29.75;;;;;-147.17;100.00;-15917.19;4994325;28;51117;-48
2022/11/13 09:46:41;;;;;;;;;30.50;27.25;;;;;-147.17;100.00;-15917.19;4994364;28;51129;-47
2022/11/13 09:49:17;;;;;;;;;28.25;27.25;;;;;-147.17;100.00;-15917.19;4994050;28;51137;-47
2022/11/13 09:51:56;;;;;;;;;26.25;25.75;;;;;-147.17;100.00;-15917.19;4995308;28;51219;-49
2022/11/13 09:54:22;;;;;;;;;31.25;29.50;;;;;-147.17;100.00;-15917.19;4990321;28;52061;-48
2022/11/13 09:57:19;;;;;;;;;33.00;30.25;;;;;-147.17;100.00;-15917.19;4995484;28;51049;-49
2022/11/13 10:00:04;;;;;;;;;26.50;26.25;;;;;-147.17;100.00;-15917.19;4977172;28;51082;-47
2022/11/13 10:02:29;;;;;;;;;28.50;28.00;;;;;-147.17;100.00;-15917.19;4994089;28;51199;-47
2022/11/13 10:05:04;;;;;;;;;30.25;29.00;;;;;-147.17;100.00;-15917.19;4991086;28;51232;-47
2022/11/13 10:08:00;;;;;;;;;29.25;27.25;;;;;-147.17;100.00;-15917.19;4986722;28;50983;-48
2022/11/13 10:10:54;;;;;;;;;33.75;32.00;;;;;-147.17;100.00;-15917.19;4992351;28;51134;-47
2022/11/13 10:13:30;;;;;;;;;28.00;27.75;;;;;-147.17;100.00;-15917.19;4987175;28;51021;-49
2022/11/13 10:16:10;;;;;;;;;29.50;28.75;;;;;-147.17;100.00;-15917.19;4993326;28;51828;-49
2022/11/13 10:18:37;;;;;;;;;32.75;31.50;;;;;-147.17;100.00;-15917.19;4973096;28;50991;-48
2022/11/13 10:21:28;;;;;;;;;32.75;31.75;;;;;-147.17;100.00;-15917.19;4993928;28;51109;-48
2022/11/13 10:23:55;;;;;;;;;36.75;34.25;;;;;-147.17;100.00;-15917.19;4994116;28;51072;-49
2022/11/13 10:26:26;;;;;;;;;27.25;26.75;;;;;-147.17;100.00;-15917.19;4993927;28;52247;-48
2022/11/13 10:29:01;;;;;;;;;36.25;34.00;;;;;-147.17;100.00;-15917.19;4984461;28;51112;-47
2022/11/13 10:31:26;;;;;;;;;33.75;33.00;;;;;-147.17;100.00;-15917.19;4991420;28;51002;-48
2022/11/13 10:33:55;;;;;;;;;35.50;33.75;;;;;-147.17;100.00;-15917.19;4990361;28;51295;-48
2022/11/13 10:36:33;;;;;;;;;37.00;34.25;;;;;-147.17;100.00;-15917.19;4992810;28;51888;-48
2022/11/13 10:39:09;;;;;;;;;35.75;33.25;;;;;-147.17;100.00;-15917.19;4993469;28;50934;-49
2022/11/13 10:41:46;;;;;;;;;36.25;34.50;;;;;-147.17;100.00;-15917.19;4971572;28;51146;-48
2022/11/13 10:44:20;;;;;;;;;35.75;33.25;;;;;-147.17;100.00;-15917.19;4991115;28;51014;-48
2022/11/13 10:46:45;;;;;;;;;37.50;33.75;;;;;-147.17;100.00;-15917.19;4972226;28;52810;-48
2022/11/13 10:49:16;;;;;;;;;33.00;31.75;;;;;-147.17;100.00;-15917.19;4981080;28;51122;-48